Time;durP1;ratioP1;P1;durP2;ratioP2;P2;SDS_P1;SDS_P2;PMS_P1;PMS_P2;Temp;Humidity;BMP_temperature;BMP_pressure;BME280_temperature;BME280_humidity;BME280_pressure;Samples;Min_cycle;Max_cycle;Signal;HPM_P1;HPM_P2
2022/08/15 00:01:57;;;;;;;6.18;2.08;;;22.70;99.90;;;;;;5030372;28;20186;-52
2022/08/15 00:04:23;;;;;;;9.60;2.20;;;22.80;99.90;;;;;;5030157;28;20746;-54
2022/08/15 00:06:50;;;;;;;3.20;1.67;;;22.70;99.90;;;;;;5030344;28;20182;-53
2022/08/15 00:09:19;;;;;;;3.83;1.70;;;22.70;99.90;;;;;;5030373;28;20349;-53
2022/08/15 00:11:49;;;;;;;2.10;1.40;;;22.70;99.90;;;;;;5030314;28;20166;-53
2022/08/15 00:14:35;;;;;;;5.07;1.80;;;22.60;99.90;;;;;;5030275;28;20185;-53
2022/08/15 00:17:09;;;;;;;3.80;1.73;;;22.50;99.90;;;;;;5030198;28;20185;-53
2022/08/15 00:19:40;;;;;;;3.67;1.65;;;22.40;99.90;;;;;;5030237;28;20182;-54
2022/08/15 00:22:09;;;;;;;4.93;1.70;;;22.20;99.90;;;;;;5031082;28;20639;-54
2022/08/15 00:24:36;;;;;;;3.97;1.73;;;22.10;99.90;;;;;;5033724;28;20186;-53
2022/08/15 00:27:06;;;;;;;4.50;2.00;;;22.00;99.90;;;;;;5033817;28;20173;-51
2022/08/15 00:29:33;;;;;;;2.70;1.98;;;21.80;99.90;;;;;;5033908;28;20225;-51
2022/08/15 00:31:59;;;;;;;17.83;4.60;;;21.70;99.90;;;;;;5033722;28;20598;-51
2022/08/15 00:34:26;;;;;;;5.68;3.38;;;21.70;99.90;;;;;;5033778;28;20181;-52
2022/08/15 00:36:52;;;;;;;11.30;3.47;;;21.60;99.90;;;;;;5033632;28;20166;-51
2022/08/15 00:39:20;;;;;;;13.00;3.80;;;21.60;99.90;;;;;;5033462;28;20719;-51
2022/08/15 00:41:48;;;;;;;7.68;3.30;;;21.50;99.90;;;;;;5033635;28;20224;-53
2022/08/15 00:44:16;;;;;;;8.48;3.13;;;21.40;99.90;;;;;;5033675;28;20174;-52
2022/08/15 00:46:49;;;;;;;8.38;2.67;;;21.50;99.90;;;;;;5033491;28;20178;-52
2022/08/15 00:49:15;;;;;;;10.52;2.83;;;21.50;99.90;;;;;;5033387;28;20216;-53
2022/08/15 00:51:53;;;;;;;7.65;2.38;;;21.40;99.90;;;;;;5033325;28;20244;-52
2022/08/15 00:54:30;;;;;;;3.25;2.08;;;21.40;99.90;;;;;;5033600;28;20216;-52
2022/08/15 00:57:00;;;;;;;7.00;2.50;;;21.40;99.90;;;;;;5033310;28;20170;-53
2022/08/15 00:59:34;;;;;;;7.43;2.70;;;21.40;99.90;;;;;;5033355;28;20257;-52
2022/08/15 01:02:05;;;;;;;6.53;2.72;;;21.50;99.90;;;;;;5033156;28;20672;-53
2022/08/15 01:04:32;;;;;;;12.27;2.42;;;21.40;99.90;;;;;;5033229;28;20408;-53
2022/08/15 01:06:58;;;;;;;7.25;2.80;;;21.30;99.90;;;;;;5033162;28;20536;-54
2022/08/15 01:09:27;;;;;;;6.72;2.60;;;21.30;99.90;;;;;;5033083;28;20296;-52
2022/08/15 01:11:59;;;;;;;14.38;3.42;;;21.40;99.90;;;;;;5033136;28;20189;-53
2022/08/15 01:14:25;;;;;;;7.35;3.20;;;21.40;99.90;;;;;;5032870;28;20220;-53
2022/08/15 01:16:51;;;;;;;6.30;4.05;;;21.40;99.90;;;;;;5033023;28;20174;-53
2022/08/15 01:19:30;;;;;;;8.60;4.10;;;21.50;99.90;;;;;;5033123;28;20248;-53
2022/08/15 01:22:07;;;;;;;7.20;3.35;;;21.50;99.90;;;;;;5032985;28;20176;-53
2022/08/15 01:24:44;;;;;;;13.63;3.25;;;21.50;99.90;;;;;;5031531;28;20244;-53
2022/08/15 01:27:10;;;;;;;10.05;3.53;;;21.50;99.90;;;;;;5032791;28;20204;-52
2022/08/15 01:29:36;;;;;;;8.05;3.85;;;21.50;99.90;;;;;;5032660;28;20201;-53
2022/08/15 01:32:03;;;;;;;10.43;5.00;;;21.40;99.90;;;;;;5032771;28;20637;-53
2022/08/15 01:34:29;;;;;;;11.13;4.85;;;21.40;99.90;;;;;;5031755;28;20202;-52
2022/08/15 01:36:54;;;;;;;5.70;4.03;;;21.40;99.90;;;;;;5032479;28;20573;-53
2022/08/15 01:39:32;;;;;;;9.48;3.53;;;21.40;99.90;;;;;;5032412;28;20305;-52
2022/08/15 01:42:13;;;;;;;13.20;4.13;;;21.40;99.90;;;;;;5032384;28;20208;-52
2022/08/15 01:44:53;;;;;;;9.75;4.38;;;21.30;99.90;;;;;;5032500;28;20174;-52
2022/08/15 01:47:27;;;;;;;9.30;4.88;;;21.20;99.90;;;;;;5032529;28;20181;-53
2022/08/15 01:50:16;;;;;;;6.88;4.03;;;21.30;99.90;;;;;;5030903;28;20214;-52
2022/08/15 01:52:54;;;;;;;9.98;4.30;;;21.20;99.90;;;;;;5032345;28;20201;-53
2022/08/15 01:55:26;;;;;;;10.20;4.20;;;21.20;99.90;;;;;;5032217;28;20174;-52
2022/08/15 01:57:52;;;;;;;10.25;4.38;;;21.20;99.90;;;;;;5030995;28;20657;-53
2022/08/15 02:00:20;;;;;;;8.30;4.70;;;21.10;99.90;;;;;;5032045;28;20178;-52
2022/08/15 02:02:46;;;;;;;12.07;5.00;;;21.10;99.90;;;;;;5032353;28;20243;-52
2022/08/15 02:05:12;;;;;;;9.88;4.90;;;21.10;99.90;;;;;;5031989;28;20170;-52
2022/08/15 02:07:38;;;;;;;8.73;4.90;;;21.10;99.90;;;;;;5032016;28;20174;-52
2022/08/15 02:10:06;;;;;;;9.98;6.20;;;21.10;99.90;;;;;;5031938;28;20220;-53
2022/08/15 02:12:35;;;;;;;14.05;6.32;;;21.10;99.90;;;;;;5031882;28;20254;-53
2022/08/15 02:15:06;;;;;;;10.65;6.03;;;21.10;99.90;;;;;;5031810;28;20519;-52
2022/08/15 02:17:32;;;;;;;11.82;5.97;;;21.20;99.90;;;;;;5031696;28;20170;-52
2022/08/15 02:19:59;;;;;;;10.82;5.78;;;21.20;99.90;;;;;;5031750;28;20185;-53
2022/08/15 02:22:26;;;;;;;13.02;6.57;;;21.10;99.90;;;;;;5031676;28;20170;-52
2022/08/15 02:24:57;;;;;;;11.63;6.78;;;21.10;99.90;;;;;;5031662;28;20661;-53
2022/08/15 02:27:25;;;;;;;9.35;6.82;;;21.00;99.90;;;;;;5031580;28;20201;-52
2022/08/15 02:29:51;;;;;;;14.63;6.80;;;21.00;99.90;;;;;;5031851;28;20225;-52
2022/08/15 02:32:18;;;;;;;12.20;7.22;;;21.00;99.90;;;;;;5031680;28;20169;-52
2022/08/15 02:34:46;;;;;;;13.90;7.10;;;20.90;99.90;;;;;;5031416;28;20235;-52
2022/08/15 02:37:18;;;;;;;17.10;7.32;;;20.90;99.90;;;;;;5031364;28;20174;-52
2022/08/15 02:39:46;;;;;;;12.10;6.72;;;20.90;99.90;;;;;;5031440;28;20197;-52
2022/08/15 02:42:12;;;;;;;14.00;7.82;;;20.90;99.90;;;;;;5031322;28;20174;-52
2022/08/15 02:44:38;;;;;;;14.27;7.97;;;21.00;99.90;;;;;;5031044;28;20648;-52
2022/08/15 02:47:05;;;;;;;15.88;7.75;;;21.00;99.90;;;;;;5031504;28;20178;-53
2022/08/15 02:49:33;;;;;;;17.80;9.00;;;21.10;99.90;;;;;;5031168;28;20292;-52
2022/08/15 02:52:00;;;;;;;16.17;8.38;;;21.10;99.90;;;;;;5031237;28;20636;-52
2022/08/15 02:54:26;;;;;;;13.05;8.73;;;21.20;99.90;;;;;;5029919;28;20228;-52
2022/08/15 02:56:54;;;;;;;13.95;8.60;;;21.20;99.90;;;;;;5031142;28;20633;-52
2022/08/15 02:59:20;;;;;;;20.30;9.25;;;21.20;99.90;;;;;;5031342;28;20173;-52
2022/08/15 03:01:45;;;;;;;19.23;9.25;;;21.20;99.90;;;;;;5031138;28;20222;-53
2022/08/15 03:04:14;;;;;;;15.52;8.60;;;21.20;99.90;;;;;;5031027;28;20201;-52
2022/08/15 03:06:44;;;;;;;21.85;8.95;;;21.10;99.90;;;;;;5031021;28;20505;-53
2022/08/15 03:09:11;;;;;;;16.83;8.95;;;21.00;99.90;;;;;;5030892;28;20221;-52
2022/08/15 03:11:39;;;;;;;16.88;8.80;;;21.00;99.90;;;;;;5030931;28;20170;-51
2022/08/15 03:14:11;;;;;;;16.40;8.75;;;21.00;99.90;;;;;;5030963;28;20177;-52
2022/08/15 03:16:40;;;;;;;14.15;8.73;;;21.00;99.90;;;;;;5029684;28;20177;-52
2022/08/15 03:19:08;;;;;;;14.30;8.25;;;20.90;99.90;;;;;;5030912;28;20182;-51
2022/08/15 03:21:35;;;;;;;14.45;8.95;;;20.90;99.90;;;;;;5030739;28;20181;-51
2022/08/15 03:24:02;;;;;;;19.17;9.35;;;20.90;99.90;;;;;;5030846;28;20181;-52
2022/08/15 03:26:28;;;;;;;14.18;8.65;;;20.90;99.90;;;;;;5030730;28;20196;-53
2022/08/15 03:28:54;;;;;;;15.93;9.20;;;20.90;99.90;;;;;;5030767;28;20213;-53
2022/08/15 03:31:21;;;;;;;17.83;8.65;;;20.80;99.90;;;;;;5030890;28;20174;-52
2022/08/15 03:33:47;;;;;;;18.27;8.88;;;20.80;99.90;;;;;;5030867;28;20172;-53
2022/08/15 03:36:15;;;;;;;16.42;8.75;;;20.80;99.90;;;;;;5030702;28;20178;-52
2022/08/15 03:38:41;;;;;;;20.52;8.60;;;20.80;99.90;;;;;;5030453;28;20213;-52
2022/08/15 03:41:09;;;;;;;17.30;8.63;;;20.80;99.90;;;;;;5030768;28;20277;-52
2022/08/15 03:43:37;;;;;;;15.70;8.45;;;20.90;99.90;;;;;;5030593;28;20174;-52
2022/08/15 03:46:07;;;;;;;18.17;9.63;;;20.90;99.90;;;;;;5030561;28;20649;-53
2022/08/15 03:48:39;;;;;;;17.10;9.07;;;20.80;99.90;;;;;;5030465;28;20213;-52
2022/08/15 03:51:08;;;;;;;14.80;8.82;;;20.80;99.90;;;;;;5030539;28;20170;-53
2022/08/15 03:53:44;;;;;;;19.80;9.10;;;20.80;99.90;;;;;;5030660;28;20186;-53
2022/08/15 03:56:13;;;;;;;14.45;8.63;;;20.70;99.90;;;;;;5030534;28;20197;-53
2022/08/15 03:58:40;;;;;;;15.52;9.02;;;20.70;99.90;;;;;;5033813;28;20201;-53
2022/08/15 04:01:13;;;;;;;20.23;9.60;;;20.70;99.90;;;;;;5034267;28;20182;-53
2022/08/15 04:03:39;;;;;;;16.55;9.10;;;20.70;99.90;;;;;;5034534;28;20174;-53
2022/08/15 04:06:07;;;;;;;15.27;9.20;;;20.70;99.90;;;;;;5034411;28;20201;-53
2022/08/15 04:08:33;;;;;;;14.68;8.55;;;20.80;99.90;;;;;;5034242;28;20209;-53
2022/08/15 04:11:05;;;;;;;18.08;9.45;;;20.80;99.90;;;;;;5034169;28;20178;-53
2022/08/15 04:13:31;;;;;;;15.60;8.98;;;20.70;99.90;;;;;;5034667;28;20177;-51
2022/08/15 04:15:59;;;;;;;14.77;8.30;;;20.70;99.90;;;;;;5033951;28;20170;-53
2022/08/15 04:18:27;;;;;;;12.27;7.78;;;20.70;99.90;;;;;;5033971;28;20607;-53
2022/08/15 04:20:59;;;;;;;12.73;8.15;;;20.80;99.90;;;;;;5033936;28;20257;-55
2022/08/15 04:23:26;;;;;;;13.65;8.75;;;20.80;99.90;;;;;;5033925;28;20193;-54
2022/08/15 04:25:53;;;;;;;14.30;8.73;;;20.70;99.90;;;;;;5033918;28;20170;-53
2022/08/15 04:28:21;;;;;;;14.43;9.65;;;20.70;99.90;;;;;;5033639;28;20209;-53
2022/08/15 04:30:48;;;;;;;16.65;9.05;;;20.70;99.90;;;;;;5033877;28;20169;-52
2022/08/15 04:33:21;;;;;;;19.00;9.50;;;20.70;99.90;;;;;;5033792;28;20641;-53
2022/08/15 04:36:01;;;;;;;17.50;10.15;;;20.60;99.90;;;;;;5033703;28;20663;-53
2022/08/15 04:38:26;;;;;;;14.90;9.27;;;20.60;99.90;;;;;;5033452;28;20244;-53
2022/08/15 04:40:54;;;;;;;13.38;10.02;;;20.70;99.90;;;;;;5033585;28;20170;-53
2022/08/15 04:43:21;;;;;;;16.83;9.70;;;20.80;99.90;;;;;;5033999;28;20170;-53
2022/08/15 04:45:47;;;;;;;13.23;9.52;;;20.80;99.90;;;;;;5033435;28;20166;-53
2022/08/15 04:48:16;;;;;;;19.50;10.52;;;20.90;99.90;;;;;;5033375;28;20669;-53
2022/08/15 04:50:45;;;;;;;18.15;10.70;;;20.90;99.90;;;;;;5032360;28;20547;-53
2022/08/15 04:53:12;;;;;;;19.38;10.68;;;20.80;99.90;;;;;;5033260;28;20248;-52
2022/08/15 04:55:43;;;;;;;18.33;11.30;;;20.80;99.90;;;;;;5033368;28;20649;-53
2022/08/15 04:58:12;;;;;;;23.48;10.40;;;20.90;99.90;;;;;;5033311;28;20170;-53
2022/08/15 05:00:40;;;;;;;15.95;10.45;;;20.80;99.90;;;;;;5033229;28;20179;-53
2022/08/15 05:03:08;;;;;;;19.05;11.20;;;20.80;99.90;;;;;;5033367;28;20271;-53
2022/08/15 05:05:40;;;;;;;17.55;11.82;;;20.80;99.90;;;;;;5033115;28;20192;-53
2022/08/15 05:08:08;;;;;;;24.25;11.70;;;20.80;99.90;;;;;;5032861;28;20277;-53
2022/08/15 05:10:33;;;;;;;23.55;12.23;;;20.80;99.90;;;;;;5033101;28;20185;-53
2022/08/15 05:13:15;;;;;;;20.77;13.00;;;20.80;99.90;;;;;;5033001;28;20167;-53
2022/08/15 05:15:42;;;;;;;19.42;12.70;;;20.80;99.90;;;;;;5032986;28;20178;-53
2022/08/15 05:18:08;;;;;;;18.75;12.30;;;20.80;99.90;;;;;;5032870;28;20201;-53
2022/08/15 05:20:34;;;;;;;22.60;12.38;;;20.80;99.90;;;;;;5033088;28;20264;-53
2022/08/15 05:23:01;;;;;;;20.92;12.80;;;20.90;99.90;;;;;;5032872;28;20267;-54
2022/08/15 05:25:28;;;;;;;18.08;13.85;;;20.90;99.90;;;;;;5032699;28;20520;-52
2022/08/15 05:27:54;;;;;;;25.20;13.70;;;20.90;99.90;;;;;;5032800;28;20644;-54
2022/08/15 05:30:22;;;;;;;28.45;13.48;;;20.90;99.90;;;;;;5032603;28;20653;-53
2022/08/15 05:32:47;;;;;;;22.73;13.70;;;21.00;99.90;;;;;;5032599;28;20564;-52
2022/08/15 05:35:13;;;;;;;21.52;13.45;;;20.90;99.90;;;;;;5032589;28;20196;-52
2022/08/15 05:37:39;;;;;;;21.65;13.95;;;20.90;99.90;;;;;;5032436;28;20217;-53
2022/08/15 05:40:08;;;;;;;21.00;12.07;;;21.00;99.90;;;;;;5032419;28;20168;-54
2022/08/15 05:42:50;;;;;;;21.92;12.95;;;21.00;99.90;;;;;;5032574;28;20644;-55
2022/08/15 05:45:27;;;;;;;20.83;12.77;;;21.00;99.90;;;;;;5032337;28;20239;-53
2022/08/15 05:47:53;;;;;;;23.20;12.77;;;21.10;99.90;;;;;;5032380;28;20204;-54
2022/08/15 05:50:35;;;;;;;20.05;13.82;;;21.20;99.90;;;;;;5032523;28;20209;-54
2022/08/15 05:53:16;;;;;;;26.98;15.02;;;21.30;99.90;;;;;;5032303;28;20178;-54
2022/08/15 05:56:06;;;;;;;31.08;14.98;;;21.30;99.90;;;;;;5032150;28;20178;-53
2022/08/15 05:58:55;;;;;;;23.20;15.00;;;21.30;99.90;;;;;;5032179;28;20170;-54
2022/08/15 06:01:26;;;;;;;40.65;15.90;;;21.30;99.90;;;;;;5032095;28;20174;-52
2022/08/15 06:04:18;;;;;;;24.60;14.40;;;21.30;99.90;;;;;;5031988;28;20192;-54
2022/08/15 06:06:47;;;;;;;30.08;14.40;;;21.40;99.90;;;;;;5003522;28;20186;-54
2022/08/15 06:09:38;;;;;;;24.75;14.80;;;21.40;99.90;;;;;;5031907;28;20213;-53
2022/08/15 06:12:09;;;;;;;23.15;13.60;;;21.40;99.90;;;;;;5031950;28;20166;-53
2022/08/15 06:14:40;;;;;;;28.48;14.48;;;21.40;99.90;;;;;;5031745;28;20189;-54
2022/08/15 06:17:15;;;;;;;20.08;13.95;;;21.50;99.90;;;;;;5031617;28;20223;-54
2022/08/15 06:19:45;;;;;;;27.73;15.70;;;21.50;99.90;;;;;;5031492;28;20196;-53
2022/08/15 06:22:12;;;;;;;21.42;14.35;;;21.50;99.90;;;;;;5031682;28;20316;-55
2022/08/15 06:24:49;;;;;;;25.95;15.63;;;21.60;99.90;;;;;;5031640;28;20182;-53
2022/08/15 06:27:49;;;;;;;24.05;15.25;;;21.60;99.90;;;;;;5031476;28;20177;-53
2022/08/15 06:31:08;;;;;;;19.38;13.68;;;21.70;99.90;;;;;;5031451;28;20671;-54
2022/08/15 06:33:56;;;;;;;26.67;15.25;;;21.80;99.90;;;;;;4987746;28;20225;-52
2022/08/15 06:36:28;;;;;;;23.40;14.68;;;22.00;99.90;;;;;;5031464;28;20174;-54
2022/08/15 06:39:01;;;;;;;27.63;15.45;;;22.00;99.90;;;;;;5031133;28;20731;-53
2022/08/15 06:41:48;;;;;;;25.65;16.45;;;22.00;99.90;;;;;;5031364;28;20174;-53
2022/08/15 06:44:15;;;;;;;24.50;15.57;;;21.90;99.90;;;;;;5031442;28;20185;-54
2022/08/15 06:46:41;;;;;;;28.13;15.60;;;21.90;99.90;;;;;;5031277;28;20261;-53
2022/08/15 06:49:11;;;;;;;24.70;16.00;;;21.90;99.90;;;;;;5031218;28;20245;-54
2022/08/15 06:51:38;;;;;;;23.05;16.52;;;21.80;99.90;;;;;;5031075;28;20162;-53
2022/08/15 06:54:11;;;;;;;26.73;16.05;;;21.80;99.90;;;;;;5030977;28;20178;-53
2022/08/15 06:56:54;;;;;;;27.67;17.30;;;21.80;99.90;;;;;;5031026;28;20162;-53
2022/08/15 06:59:35;;;;;;;30.20;17.60;;;21.60;99.90;;;;;;5031114;28;20177;-53
2022/08/15 07:02:36;;;;;;;30.58;18.00;;;21.60;99.90;;;;;;5030783;28;20178;-54
2022/08/15 07:05:36;;;;;;;28.40;18.42;;;21.50;99.90;;;;;;5031114;28;20223;-53
2022/08/15 07:08:15;;;;;;;29.48;19.27;;;21.30;99.90;;;;;;5030861;28;20201;-52
2022/08/15 07:10:41;;;;;;;25.30;18.70;;;21.30;99.90;;;;;;5030812;28;20207;-53
2022/08/15 07:13:20;;;;;;;23.83;16.77;;;21.30;99.90;;;;;;5031075;28;20261;-53
2022/08/15 07:15:52;;;;;;;29.45;17.42;;;21.50;99.90;;;;;;5030701;28;20169;-53
2022/08/15 07:18:34;;;;;;;28.35;16.75;;;21.70;99.90;;;;;;5031007;28;20553;-54
2022/08/15 07:21:16;;;;;;;23.00;15.90;;;21.90;99.90;;;;;;5030700;28;20185;-53
2022/08/15 07:24:30;;;;;;;24.70;16.80;;;21.80;99.90;;;;;;5030684;28;20173;-54
2022/08/15 07:27:04;;;;;;;23.23;14.60;;;22.00;99.90;;;;;;5017497;28;20526;-51
2022/08/15 07:29:35;;;;;;;22.30;15.20;;;22.00;99.90;;;;;;5030558;28;20205;-50
2022/08/15 07:32:21;;;;;;;22.20;14.68;;;21.90;99.90;;;;;;5031416;28;20527;-54
2022/08/15 07:35:06;;;;;;;29.15;15.02;;;21.90;99.90;;;;;;5034364;28;20213;-52
2022/08/15 07:37:34;;;;;;;26.52;14.25;;;22.00;99.90;;;;;;5034753;28;20761;-53
2022/08/15 07:40:19;;;;;;;24.45;14.20;;;22.00;99.90;;;;;;5034613;28;20180;-52
2022/08/15 07:42:45;;;;;;;23.80;14.32;;;22.10;99.90;;;;;;5034610;28;20181;-54
2022/08/15 07:45:17;;;;;;;26.45;15.27;;;22.20;99.90;;;;;;5034589;28;20170;-53
2022/08/15 07:48:03;;;;;;;21.98;13.18;;;22.40;99.90;;;;;;5034496;28;20173;-53
2022/08/15 07:50:31;;;;;;;18.88;12.93;;;22.50;99.90;;;;;;5034491;28;20723;-53
2022/08/15 07:53:22;;;;;;;27.85;13.98;;;22.70;99.90;;;;;;5034337;28;20568;-53
2022/08/15 07:56:10;;;;;;;21.77;12.95;;;22.80;99.90;;;;;;5034124;28;20189;-53
2022/08/15 07:58:36;;;;;;;20.80;12.85;;;22.90;99.90;;;;;;5034353;28;20166;-53
2022/08/15 08:01:29;;;;;;;22.13;13.07;;;22.90;99.90;;;;;;5034303;28;20166;-53
2022/08/15 08:04:09;;;;;;;22.13;12.90;;;22.90;99.90;;;;;;5034289;28;20243;-54
2022/08/15 08:06:45;;;;;;;21.70;12.90;;;22.90;99.90;;;;;;5034236;28;20232;-53
2022/08/15 08:09:23;;;;;;;24.65;12.88;;;23.00;99.90;;;;;;5034099;28;20695;-53
2022/08/15 08:11:54;;;;;;;18.67;12.63;;;23.10;99.90;;;;;;5034167;28;20177;-53
2022/08/15 08:14:30;;;;;;;20.13;13.07;;;23.00;99.90;;;;;;5033908;28;20580;-53
2022/08/15 08:17:04;;;;;;;22.75;14.05;;;23.20;99.90;;;;;;5034152;28;20260;-54
2022/08/15 08:19:41;;;;;;;18.10;13.57;;;23.10;99.90;;;;;;5034077;28;20174;-53
2022/08/15 08:22:43;;;;;;;24.08;13.43;;;23.10;99.90;;;;;;5033953;28;20637;-54
2022/08/15 08:25:51;;;;;;;26.58;13.13;;;23.00;99.90;;;;;;5010518;28;20190;-53
2022/08/15 08:28:44;;;;;;;18.65;12.90;;;23.00;99.90;;;;;;5033584;28;20259;-53
2022/08/15 08:31:36;;;;;;;19.77;13.05;;;23.00;99.90;;;;;;5033794;28;20213;-53
2022/08/15 08:34:34;;;;;;;19.70;12.98;;;23.00;99.90;;;;;;5033575;28;20258;-53
2022/08/15 08:37:03;;;;;;;23.48;14.52;;;23.10;99.90;;;;;;5033794;28;20196;-53
2022/08/15 08:39:43;;;;;;;42.25;15.75;;;23.10;99.90;;;;;;5033613;28;20178;-53
2022/08/15 08:42:09;;;;;;;32.92;19.13;;;23.20;99.90;;;;;;5033590;28;20181;-52
2022/08/15 08:44:38;;;;;;;30.48;19.60;;;23.00;99.90;;;;;;5033034;28;20257;-53
2022/08/15 08:47:29;;;;;;;29.10;19.08;;;22.90;99.90;;;;;;5033703;28;20180;-53
2022/08/15 08:50:13;;;;;;;33.55;19.52;;;22.70;99.90;;;;;;5033304;28;20300;-53
2022/08/15 08:52:48;;;;;;;26.08;18.25;;;22.50;99.90;;;;;;5033370;28;20201;-53
2022/08/15 08:55:54;;;;;;;26.75;17.85;;;22.50;99.90;;;;;;5033403;28;20174;-53
2022/08/15 08:58:31;;;;;;;26.10;17.90;;;22.40;99.90;;;;;;5020222;28;20197;-53
2022/08/15 09:00:58;;;;;;;29.90;18.27;;;22.50;99.90;;;;;;5033128;28;20631;-52
2022/08/15 09:03:45;;;;;;;28.00;16.75;;;22.50;99.90;;;;;;5033129;28;20212;-54
2022/08/15 09:06:15;;;;;;;32.72;17.90;;;22.50;99.90;;;;;;5033318;28;20224;-52
2022/08/15 09:09:05;;;;;;;33.95;18.15;;;22.30;99.90;;;;;;5032952;28;20710;-53
2022/08/15 09:11:56;;;;;;;45.88;25.98;;;22.30;99.90;;;;;;5033128;28;20177;-52
2022/08/15 09:14:31;;;;;;;37.50;21.35;;;22.20;99.90;;;;;;5033275;28;20202;-54
2022/08/15 09:17:03;;;;;;;22.30;16.77;;;22.20;99.90;;;;;;5033085;28;20655;-53
2022/08/15 09:19:40;;;;;;;26.10;16.83;;;22.20;99.90;;;;;;5032982;28;20173;-53
2022/08/15 09:22:05;;;;;;;29.00;15.30;;;22.20;99.90;;;;;;5032823;28;20197;-60
2022/08/15 09:24:31;;;;;;;25.10;15.70;;;22.10;99.90;;;;;;5033160;28;20216;-53
2022/08/15 09:27:16;;;;;;;24.60;14.75;;;22.20;99.90;;;;;;5033015;28;20185;-54
2022/08/15 09:29:50;;;;;;;24.27;15.20;;;22.10;99.90;;;;;;5032896;28;20217;-54
2022/08/15 09:32:34;;;;;;;26.92;16.70;;;22.10;99.90;;;;;;5032586;28;20572;-54
2022/08/15 09:35:12;;;;;;;26.45;16.15;;;22.10;99.90;;;;;;5032762;28;20181;-52
2022/08/15 09:37:52;;;;;;;26.50;15.48;;;22.20;99.90;;;;;;5032304;28;20229;-51
2022/08/15 09:40:18;;;;;;;29.25;16.40;;;22.30;99.90;;;;;;5032422;28;20640;-52
2022/08/15 09:43:12;;;;;;;21.80;16.38;;;22.40;99.90;;;;;;5032513;28;20204;-52
2022/08/15 09:46:02;;;;;;;22.55;16.52;;;22.40;99.90;;;;;;5010192;28;20255;-53
2022/08/15 09:48:56;;;;;;;26.98;17.52;;;22.40;99.90;;;;;;5032162;28;20676;-53
2022/08/15 09:51:22;;;;;;;25.75;18.38;;;22.50;99.90;;;;;;5032055;28;20255;-53
2022/08/15 09:54:22;;;;;;;29.00;18.90;;;22.50;99.90;;;;;;5032309;28;20718;-53
2022/08/15 09:56:48;;;;;;;30.23;18.90;;;22.40;99.90;;;;;;5032206;28;20189;-53
2022/08/15 09:59:25;;;;;;;26.33;20.00;;;22.10;99.90;;;;;;5032206;28;20166;-53
2022/08/15 10:02:09;;;;;;;26.40;20.05;;;22.20;99.90;;;;;;5032129;28;20177;-53
2022/08/15 10:04:58;;;;;;;27.60;20.08;;;22.10;99.90;;;;;;5032017;28;20177;-53
2022/08/15 10:07:51;;;;;;;27.02;19.77;;;22.20;99.90;;;;;;5024231;28;20186;-52
2022/08/15 10:10:31;;;;;;;33.17;20.10;;;22.30;99.90;;;;;;5032182;28;20243;-53
2022/08/15 10:13:11;;;;;;;30.52;20.30;;;22.50;99.90;;;;;;5031982;28;20170;-53
2022/08/15 10:15:44;;;;;;;32.60;20.50;;;22.50;99.90;;;;;;5031855;28;20239;-52
2022/08/15 10:18:30;;;;;;;42.08;20.50;;;22.60;99.90;;;;;;5031785;28;20166;-53
2022/08/15 10:20:56;;;;;;;29.60;20.58;;;22.70;99.90;;;;;;5031620;28;20188;-53
2022/08/15 10:23:42;;;;;;;27.40;20.65;;;22.60;99.90;;;;;;5031837;28;20178;-53
2022/08/15 10:26:21;;;;;;;30.23;20.50;;;22.70;99.90;;;;;;5031689;28;20232;-53
2022/08/15 10:29:17;;;;;;;30.98;19.90;;;22.60;99.90;;;;;;5031600;28;20674;-53
2022/08/15 10:31:53;;;;;;;29.02;18.58;;;22.60;99.90;;;;;;5018810;28;20368;-54
2022/08/15 10:34:37;;;;;;;30.02;21.50;;;22.50;99.90;;;;;;5031389;28;20180;-53
2022/08/15 10:37:15;;;;;;;29.70;21.73;;;22.00;99.90;;;;;;5031253;28;20264;-53
2022/08/15 10:39:44;;;;;;;29.63;21.67;;;21.90;99.90;;;;;;5031611;28;20190;-53
2022/08/15 10:42:50;;;;;;;32.72;20.00;;;21.90;99.90;;;;;;5031485;28;20162;-54
2022/08/15 10:45:27;;;;;;;30.80;20.58;;;21.90;99.90;;;;;;4977489;28;20677;-54
2022/08/15 10:47:59;;;;;;;32.58;20.98;;;22.10;99.90;;;;;;5031431;28;20257;-53
2022/08/15 10:50:44;;;;;;;30.63;22.20;;;22.00;99.90;;;;;;5031504;28;20177;-53
2022/08/15 10:53:25;;;;;;;26.40;21.25;;;22.00;99.90;;;;;;5031377;28;20181;-54
2022/08/15 10:55:50;;;;;;;35.22;22.52;;;21.70;99.90;;;;;;5031107;28;20173;-53
2022/08/15 10:58:24;;;;;;;28.05;21.52;;;21.60;99.90;;;;;;5031367;28;20671;-54
2022/08/15 11:00:57;;;;;;;33.30;22.08;;;21.30;99.90;;;;;;5031209;28;20261;-52
2022/08/15 11:03:34;;;;;;;29.67;22.23;;;21.30;99.90;;;;;;5030990;28;20170;-53
2022/08/15 11:06:07;;;;;;;27.67;21.75;;;21.40;99.90;;;;;;5030845;28;20185;-54
2022/08/15 11:08:36;;;;;;;29.00;21.52;;;21.60;99.90;;;;;;5030892;28;20209;-54
2022/08/15 11:11:09;;;;;;;26.17;21.58;;;21.70;99.90;;;;;;5031094;28;20173;-54
2022/08/15 11:13:37;;;;;;;29.42;20.45;;;21.80;99.90;;;;;;5031007;28;20176;-54
2022/08/15 11:16:15;;;;;;;30.15;21.65;;;22.00;99.90;;;;;;5031109;28;20315;-54
2022/08/15 11:18:50;;;;;;;29.05;20.80;;;22.20;99.90;;;;;;5030707;28;20177;-54
2022/08/15 11:21:24;;;;;;;26.60;20.92;;;22.30;99.90;;;;;;5030766;28;20184;-54
2022/08/15 11:23:55;;;;;;;31.50;20.10;;;22.50;99.90;;;;;;5030880;28;20169;-54
2022/08/15 11:26:27;;;;;;;26.67;20.08;;;22.70;99.90;;;;;;5030758;28;20208;-53
2022/08/15 11:29:07;;;;;;;30.30;18.00;;;22.90;99.90;;;;;;5030645;28;20209;-54
2022/08/15 11:31:47;;;;;;;31.10;17.98;;;23.20;99.90;;;;;;5031016;28;20223;-54
2022/08/15 11:34:40;;;;;;;27.00;17.77;;;23.40;99.90;;;;;;5030902;28;20161;-53
2022/08/15 11:37:11;;;;;;;19.60;14.80;;;23.60;99.90;;;;;;5028436;28;20186;-54
2022/08/15 11:39:44;;;;;;;25.13;14.95;;;23.60;99.90;;;;;;5031227;28;20186;-54
2022/08/15 11:42:17;;;;;;;18.10;14.75;;;23.70;99.90;;;;;;5030941;28;20181;-55
2022/08/15 11:44:56;;;;;;;20.73;13.77;;;23.70;99.90;;;;;;5030914;28;20185;-54
2022/08/15 11:47:23;;;;;;;20.23;14.70;;;23.70;99.90;;;;;;5030673;28;20174;-54
2022/08/15 11:50:06;;;;;;;18.85;14.57;;;23.50;99.90;;;;;;5030516;28;20212;-53
2022/08/15 11:52:45;;;;;;;25.17;14.50;;;23.30;99.90;;;;;;5030683;28;20208;-54
2022/08/15 11:55:26;;;;;;;21.85;16.55;;;23.30;99.90;;;;;;5030676;28;20169;-54
2022/08/15 11:57:59;;;;;;;25.83;15.40;;;23.30;99.90;;;;;;5030620;28;20273;-54
2022/08/15 12:00:41;;;;;;;27.02;16.67;;;23.20;99.90;;;;;;5030459;28;20174;-54
2022/08/15 12:03:21;;;;;;;30.45;17.48;;;23.30;99.90;;;;;;5030303;28;20224;-53
2022/08/15 12:05:49;;;;;;;29.13;15.73;;;23.30;99.90;;;;;;5030584;28;20174;-54
2022/08/15 12:08:23;;;;;;;25.02;16.83;;;23.20;99.90;;;;;;5030449;28;20181;-54
2022/08/15 12:10:50;;;;;;;23.40;15.63;;;23.20;99.90;;;;;;5029973;28;20181;-53
2022/08/15 12:13:22;;;;;;;22.00;13.77;;;23.30;99.90;;;;;;5030334;28;20309;-54
2022/08/15 12:15:48;;;;;;;22.98;14.63;;;23.40;99.90;;;;;;5029907;28;20178;-54
2022/08/15 12:18:23;;;;;;;20.52;13.98;;;23.50;99.90;;;;;;5031230;28;20799;-54
2022/08/15 12:20:56;;;;;;;15.68;12.07;;;23.70;99.90;;;;;;5034071;28;20178;-54
2022/08/15 12:23:42;;;;;;;16.00;12.60;;;23.90;99.90;;;;;;5033735;28;20204;-55
2022/08/15 12:26:11;;;;;;;16.50;12.27;;;24.30;99.90;;;;;;5034006;28;20173;-54
2022/08/15 12:28:38;;;;;;;17.80;11.32;;;24.70;99.90;;;;;;5033559;28;20204;-54
2022/08/15 12:31:27;;;;;;;15.90;11.32;;;25.00;99.90;;;;;;5033756;28;20173;-54
2022/08/15 12:34:27;;;;;;;11.63;9.57;;;25.50;99.90;;;;;;5033738;28;20170;-55
2022/08/15 12:36:53;;;;;;;15.35;9.30;;;26.30;99.90;;;;;;5022713;28;20228;-54
2022/08/15 12:39:20;;;;;;;10.68;6.05;;;27.50;99.90;;;;;;5033234;28;20244;-54
2022/08/15 12:41:49;;;;;;;11.80;5.57;;;28.90;99.90;;;;;;5033504;28;20235;-54
2022/08/15 12:44:28;;;;;;;11.35;5.18;;;29.90;99.90;;;;;;5033370;28;20252;-55
2022/08/15 12:46:55;;;;;;;11.25;6.07;;;31.50;99.90;;;;;;5033438;28;20177;-54
2022/08/15 12:49:21;;;;;;;7.68;6.28;;;31.30;99.90;;;;;;5033347;28;20210;-55
2022/08/15 12:51:47;;;;;;;11.43;5.78;;;31.60;99.90;;;;;;5033229;28;20181;-56
2022/08/15 12:54:14;;;;;;;7.50;5.43;;;32.00;99.90;;;;;;5033045;28;20178;-55
2022/08/15 12:56:41;;;;;;;9.20;5.30;;;32.70;99.90;;;;;;5033240;28;20486;-56
2022/08/15 12:59:07;;;;;;;7.13;5.63;;;33.20;99.90;;;;;;5033146;28;20671;-56
2022/08/15 13:01:34;;;;;;;8.15;4.70;;;32.90;99.90;;;;;;5033127;28;20248;-55
2022/08/15 13:04:04;;;;;;;6.35;4.40;;;32.60;99.90;;;;;;5033241;28;20174;-55
2022/08/15 13:06:30;;;;;;;5.95;4.15;;;33.00;99.90;;;;;;5033101;28;20166;-55
2022/08/15 13:08:55;;;;;;;12.95;5.35;;;33.40;99.90;;;;;;5032970;28;20324;-55